East Norwich, NY (11732)

2:30 PM EST on January 25, 2015 (GMT -0500)
East Norwich NY | Change Station
CLOSE
Current Station
Personal Weather Station
Location: East Norwich, NY
Elevation: 210 ft
Nearby Weather Stations
Active Advisory: Blizzard Watch Active Notice: Record Report

Elev 210 ft 40.85 °N, 73.53 °W | Updated 14 minutes ago

Partly Cloudy
Partly Cloudy
42.1 °F
Feels Like 38 °F
N
6.8
Wind Variable Wind from NNW

Today
High -- | Low -- °F
--% Chance of Precip.
Yesterday
High -- | Low -- °F
Precip. -- in
7:10 AM 5:02 PM
Waxing Crescent, 35% visible
Pressure 29.77 in
Visibility 10.0 miles
Clouds Clear
Windchill 38 °F
Dew Point 17 °F
Humidity 36%
Rainfall 0.11 in
Snow Depth Not available.
UV 2 out of 12
Pollen .10 out of 12
Air Quality Not available.
Flu Activity Not available.
METAR KFRG 251853Z 31009G22KT 10SM CLR 06/M09 A2977 RMK AO2 PK WND 28026/1838 SLP080 T00561094

More Conditions Fewer Conditions

Pressure 29.77 in
Visibility 10.0 miles
Clouds Clear
Windchill 38 °F
Dew Point 17 °F
Humidity 36%
Rainfall 0.11 in
Snow Depth Not available.
UV 2 out of 12
Pollen .10 out of 12
Air Quality Not available.
Flu Activity Not available.
METAR KFRG 251853Z 31009G22KT 10SM CLR 06/M09 A2977 RMK AO2 PK WND 28026/1838 SLP080 T00561094

More Conditions Fewer Conditions

10-Day Weather Forecast

Almanac

Astronomy

Jan. 25, 2015 Rise Set
Actual Time
Civil Twilight
Nautical Twilight
Astronomical Twilight
Moon
Length of Visible Light
Length of Day
Tomorrow will be .
, % of the Moon is Illuminated

Today's Extremes

State Highs State Lows

Community

WunderPhotos

Upload Photos

1,790,030 photos uploaded!

WunderBlogs® & News

Nearby

Air Quality

  Air Quality AQ Index Pollutant
Not available.

Snow Depth

Station Depth Elevation

Earthquake Activity

City Distance Mag. Time & Date
Minimum magnitude displayed is 2.5.

Coastal Water Temperatures

Place Temperature

Nearby Weather Stations